Time;durP1;ratioP1;P1;durP2;ratioP2;P2;SDS_P1;SDS_P2;PMS_P1;PMS_P2;Temp;Humidity;BMP_temperature;BMP_pressure;BME280_temperature;BME280_humidity;BME280_pressure;Samples;Min_cycle;Max_cycle;Signal;HPM_P1;HPM_P2
2023/09/15 00:01:49;;;;;;;5.83;2.10;;;12.60;99.90;;;13.57;100.00;98509.66;5043912;28;20529;-78
2023/09/15 00:04:19;;;;;;;5.03;1.70;;;12.60;99.90;;;13.59;100.00;98505.81;5040274;28;20461;-78
2023/09/15 00:06:50;;;;;;;4.30;1.77;;;12.50;99.90;;;13.57;100.00;98501.78;5045645;28;20461;-78
2023/09/15 00:09:21;;;;;;;4.50;1.80;;;12.50;99.90;;;13.53;100.00;98511.84;5043467;28;20469;-77
2023/09/15 00:11:54;;;;;;;2.20;1.50;;;12.50;99.90;;;13.54;100.00;98504.75;5042621;28;20523;-78
2023/09/15 00:14:24;;;;;;;4.83;1.97;;;12.40;99.90;;;13.52;100.00;98506.78;5042570;28;21036;-77
2023/09/15 00:16:54;;;;;;;4.50;1.73;;;12.50;99.90;;;13.53;100.00;98511.84;5043699;28;20865;-79
2023/09/15 00:19:24;;;;;;;15.57;2.10;;;12.50;99.90;;;13.44;100.00;98505.13;5045476;28;20469;-79
2023/09/15 00:21:55;;;;;;;4.70;1.40;;;12.40;99.90;;;13.36;100.00;98500.00;5043968;28;21043;-79
2023/09/15 00:24:28;;;;;;;2.90;1.70;;;12.30;99.90;;;13.34;100.00;98493.34;5042340;28;20461;-79
2023/09/15 00:26:58;;;;;;;4.57;2.00;;;12.40;99.90;;;13.35;100.00;98501.03;5042679;28;20918;-79
2023/09/15 00:29:28;;;;;;;4.10;1.57;;;12.30;99.90;;;13.34;100.00;98488.91;5046862;28;20469;-78
2023/09/15 00:31:59;;;;;;;1.83;1.67;;;12.30;99.90;;;13.31;100.00;98491.09;5046565;28;20471;-78
2023/09/15 00:34:30;;;;;;;3.07;1.40;;;12.40;99.90;;;13.34;100.00;98496.78;5048415;28;20467;-78
2023/09/15 00:36:59;;;;;;;5.60;1.67;;;12.30;99.90;;;13.30;100.00;98495.53;5046559;28;20488;-78
2023/09/15 00:39:30;;;;;;;4.03;1.60;;;12.20;99.90;;;13.25;100.00;98500.56;5047200;28;20453;-78
2023/09/15 00:42:02;;;;;;;6.50;1.97;;;12.30;99.90;;;13.23;100.00;98499.94;5044949;28;20470;-76
2023/09/15 00:44:31;;;;;;;3.10;1.60;;;12.20;99.90;;;13.27;100.00;98500.38;5045637;28;20461;-78
2023/09/15 00:47:01;;;;;;;9.70;2.17;;;12.20;99.90;;;13.22;100.00;98498.34;5046010;28;20460;-77
2023/09/15 00:49:30;;;;;;;1.80;1.40;;;12.20;99.90;;;13.25;100.00;98495.31;5050528;28;20466;-77
2023/09/15 00:52:00;;;;;;;3.10;1.80;;;12.20;99.90;;;13.19;100.00;98492.66;5047886;28;20995;-77
2023/09/15 00:54:32;;;;;;;2.40;1.90;;;12.20;99.90;;;13.17;100.00;98500.72;5046007;28;20489;-78
2023/09/15 00:57:03;;;;;;;2.63;1.70;;;12.20;99.90;;;13.13;100.00;98494.22;5045677;28;21010;-80
2023/09/15 00:59:33;;;;;;;2.33;1.70;;;12.10;99.90;;;13.11;100.00;98496.22;5049431;28;20472;-79
2023/09/15 01:02:04;;;;;;;3.30;1.47;;;12.20;99.90;;;13.05;100.00;98491.72;5046804;28;20524;-80
2023/09/15 01:04:35;;;;;;;3.20;2.20;;;12.10;99.90;;;13.02;100.00;98490.28;5049950;28;20469;-79
2023/09/15 01:07:06;;;;;;;2.20;1.80;;;12.10;99.90;;;12.99;100.00;98487.22;5048997;28;20461;-78
2023/09/15 01:09:37;;;;;;;3.70;1.70;;;12.20;99.90;;;13.04;100.00;98493.53;5046012;28;21018;-79
2023/09/15 01:12:07;;;;;;;5.77;1.80;;;12.00;99.90;;;12.98;100.00;98485.63;5045350;28;20457;-79
2023/09/15 01:14:36;;;;;;;2.83;1.80;;;12.00;99.90;;;12.88;100.00;98485.09;5047058;28;20468;-79
2023/09/15 01:17:21;;;;;;;3.60;1.90;;;12.00;99.90;;;12.81;100.00;98477.19;5044403;28;20468;-79
2023/09/15 01:20:10;;;;;;;2.27;1.97;;;12.00;99.90;;;12.89;100.00;98484.13;5047297;28;20456;-78
2023/09/15 01:23:32;;;;;;;3.27;1.67;;;11.90;99.90;;;12.90;100.00;98483.13;5050151;28;20457;-78
2023/09/15 01:26:33;;;;;;;4.80;1.70;;;11.80;99.90;;;12.83;100.00;98477.81;5047969;28;20457;-77
2023/09/15 01:30:04;;;;;;;2.03;1.60;;;11.80;99.90;;;12.83;100.00;98479.63;5046439;28;20535;-78
2023/09/15 01:32:37;;;;;;;2.10;1.63;;;11.80;99.90;;;12.80;100.00;98477.41;5045640;28;20471;-78
2023/09/15 01:35:09;;;;;;;7.40;1.60;;;11.80;99.90;;;12.78;100.00;98479.38;5046375;28;20464;-79
2023/09/15 01:37:39;;;;;;;6.67;1.90;;;11.90;99.90;;;12.80;100.00;98477.41;5045612;28;20480;-78
2023/09/15 01:40:12;;;;;;;2.23;1.60;;;11.80;99.90;;;12.79;100.00;98475.75;5048564;28;20554;-78
2023/09/15 01:42:47;;;;;;;5.60;1.77;;;11.90;99.90;;;12.73;100.00;98477.34;5047620;28;20464;-78
2023/09/15 01:45:18;;;;;;;3.63;1.67;;;11.70;99.90;;;12.69;100.00;98472.66;5044203;28;20473;-77
2023/09/15 01:47:49;;;;;;;2.50;1.60;;;11.60;99.90;;;12.70;100.00;98474.28;5044149;28;20457;-78
2023/09/15 01:50:20;;;;;;;3.23;1.87;;;11.60;99.90;;;12.71;100.00;98463.59;5045325;28;20477;-78
2023/09/15 01:52:50;;;;;;;13.07;2.00;;;11.60;99.90;;;12.72;100.00;98470.47;5047155;28;20983;-78
2023/09/15 01:55:22;;;;;;;4.20;2.00;;;11.60;99.90;;;12.71;100.00;98476.72;5045996;28;21075;-78
2023/09/15 01:57:52;;;;;;;3.33;2.73;;;11.60;99.90;;;12.68;100.00;98471.03;5043870;28;20481;-78
2023/09/15 02:00:23;;;;;;;3.87;1.60;;;11.60;99.90;;;12.56;100.00;98471.53;5044387;28;20465;-78
2023/09/15 02:02:53;;;;;;;3.10;1.50;;;11.70;99.90;;;12.53;100.00;98464.03;5047978;28;20465;-77
2023/09/15 02:05:26;;;;;;;2.23;1.60;;;11.60;99.90;;;12.44;100.00;98467.81;5042428;28;20523;-77
2023/09/15 02:07:56;;;;;;;4.50;1.60;;;11.70;99.90;;;12.44;100.00;98464.38;5045310;28;20487;-77
2023/09/15 02:10:26;;;;;;;4.47;1.40;;;11.50;99.90;;;12.43;100.00;98460.94;5044977;28;20473;-77
2023/09/15 02:12:56;;;;;;;2.10;1.60;;;11.50;99.90;;;12.48;100.00;98469.06;5045436;28;20462;-77
2023/09/15 02:15:27;;;;;;;2.73;1.93;;;11.40;99.90;;;12.48;100.00;98468.25;5043681;28;20469;-77
2023/09/15 02:17:59;;;;;;;5.80;1.63;;;11.40;99.90;;;12.49;100.00;98462.81;5042933;28;20483;-77
2023/09/15 02:20:30;;;;;;;2.20;1.50;;;11.50;99.90;;;12.44;100.00;98459.13;5046742;28;20495;-77
2023/09/15 02:23:03;;;;;;;3.77;1.67;;;11.50;99.90;;;12.42;100.00;98459.34;5046576;28;20462;-77
2023/09/15 02:25:34;;;;;;;1.40;1.20;;;11.50;99.90;;;12.44;100.00;98456.50;5045972;28;20467;-77
2023/09/15 02:28:07;;;;;;;1.80;1.33;;;11.40;99.90;;;12.38;100.00;98459.88;5046538;28;20465;-79
2023/09/15 02:30:39;;;;;;;3.77;1.60;;;11.50;99.90;;;12.36;100.00;98462.69;5043454;28;20488;-77
2023/09/15 02:33:10;;;;;;;4.37;1.60;;;11.40;99.90;;;12.38;100.00;98460.69;5045837;28;20454;-77
2023/09/15 02:35:40;;;;;;;4.53;1.80;;;11.30;99.90;;;12.35;100.00;98468.13;5047270;28;20464;-78
2023/09/15 02:38:11;;;;;;;4.00;1.90;;;11.30;99.90;;;12.27;100.00;98473.50;5046825;28;20904;-77
2023/09/15 02:40:42;;;;;;;3.07;1.90;;;11.30;99.90;;;12.24;100.00;98458.94;5048881;28;20461;-78
2023/09/15 02:43:11;;;;;;;1.90;1.70;;;11.30;99.90;;;12.23;100.00;98453.88;5045667;28;20470;-78
2023/09/15 02:45:43;;;;;;;5.87;1.70;;;11.20;99.90;;;12.18;100.00;98466.75;5044196;28;20482;-78
2023/09/15 02:48:13;;;;;;;2.40;1.33;;;11.30;99.90;;;12.17;100.00;98460.69;5045646;28;20485;-77
2023/09/15 02:50:43;;;;;;;2.30;1.80;;;11.30;99.90;;;12.14;100.00;98463.69;5047172;28;20457;-76
2023/09/15 02:53:13;;;;;;;1.83;1.70;;;11.20;99.90;;;12.16;100.00;98459.06;5048346;28;21089;-77
2023/09/15 02:55:43;;;;;;;5.80;1.60;;;11.10;99.90;;;12.11;100.00;98461.44;5044270;28;20885;-77
2023/09/15 02:58:14;;;;;;;1.60;1.43;;;11.10;99.90;;;12.18;100.00;98462.34;5046486;28;20492;-76
2023/09/15 03:00:45;;;;;;;2.97;1.30;;;11.10;99.90;;;12.14;100.00;98455.84;5047118;28;20541;-77
2023/09/15 03:03:15;;;;;;;2.23;1.60;;;11.00;99.90;;;12.19;100.00;98447.38;5048847;28;20543;-78
2023/09/15 03:05:44;;;;;;;8.77;1.53;;;11.10;99.90;;;12.18;100.00;98440.53;5045296;28;20484;-77
2023/09/15 03:08:14;;;;;;;2.87;2.00;;;11.10;99.90;;;12.09;100.00;98447.69;5045508;28;20461;-78
2023/09/15 03:10:43;;;;;;;3.20;1.57;;;11.00;99.90;;;11.99;100.00;98455.06;5045857;28;20465;-76
2023/09/15 03:13:12;;;;;;;8.33;2.10;;;11.10;99.90;;;12.03;100.00;98451.88;5044029;28;20473;-78
2023/09/15 03:15:45;;;;;;;2.73;1.60;;;11.00;99.90;;;12.07;100.00;98449.72;5046024;28;20884;-78
2023/09/15 03:18:15;;;;;;;8.57;1.80;;;10.90;99.90;;;12.08;100.00;98446.88;5045114;28;20465;-79
2023/09/15 03:20:44;;;;;;;3.70;1.60;;;11.00;99.90;;;11.97;100.00;98444.78;5042333;28;20462;-78
2023/09/15 03:23:15;;;;;;;6.83;1.83;;;11.10;99.90;;;12.01;100.00;98439.94;5045353;28;20477;-78
2023/09/15 03:25:46;;;;;;;5.57;1.90;;;11.00;99.90;;;12.00;100.00;98433.91;5043630;28;20464;-78
2023/09/15 03:28:17;;;;;;;4.10;1.30;;;11.00;99.90;;;11.95;100.00;98445.94;5043295;28;20460;-77
2023/09/15 03:30:49;;;;;;;5.77;1.77;;;11.00;99.90;;;11.99;100.00;98436.72;5044232;28;20469;-78
2023/09/15 03:33:18;;;;;;;3.10;1.70;;;11.00;99.90;;;12.00;100.00;98436.53;5043213;28;21014;-78
2023/09/15 03:35:48;;;;;;;5.07;1.73;;;11.00;99.90;;;11.93;100.00;98435.66;5046871;28;20856;-78
2023/09/15 03:38:18;;;;;;;2.27;1.57;;;11.00;99.90;;;11.92;100.00;98435.84;5045814;28;20468;-78
2023/09/15 03:40:48;;;;;;;5.30;1.70;;;11.00;99.90;;;11.96;100.00;98437.09;5044865;28;20453;-79
2023/09/15 03:43:18;;;;;;;2.43;1.50;;;10.90;99.90;;;11.94;100.00;98434.63;5042022;28;20508;-78
2023/09/15 03:45:52;;;;;;;6.93;1.80;;;10.90;99.90;;;11.92;100.00;98441.06;5043844;28;20461;-78
2023/09/15 03:48:22;;;;;;;2.90;1.53;;;10.90;99.90;;;11.93;100.00;98438.28;5045226;28;20457;-79
2023/09/15 03:50:55;;;;;;;1.80;1.43;;;10.90;99.90;;;11.91;100.00;98435.00;5044057;28;20987;-79
2023/09/15 03:53:24;;;;;;;4.23;1.90;;;10.80;99.90;;;11.86;100.00;98436.56;5041026;28;20477;-77
2023/09/15 03:55:54;;;;;;;1.67;1.50;;;10.90;99.90;;;11.81;100.00;98441.53;5042561;28;20532;-78
2023/09/15 03:58:23;;;;;;;2.03;1.47;;;10.90;99.90;;;11.84;100.00;98433.31;5044232;28;20469;-78
2023/09/15 04:00:54;;;;;;;3.27;1.60;;;10.90;99.90;;;11.80;100.00;98434.72;5043395;28;20483;-78
2023/09/15 04:03:24;;;;;;;1.60;1.50;;;10.80;99.90;;;11.71;100.00;98428.75;5043335;28;20999;-79
2023/09/15 04:05:54;;;;;;;3.33;1.40;;;10.90;99.90;;;11.66;100.00;98435.53;5047585;28;20461;-79
2023/09/15 04:08:24;;;;;;;2.20;1.40;;;10.90;99.90;;;11.65;100.00;98439.13;5047049;28;20460;-78
2023/09/15 04:10:56;;;;;;;1.73;1.30;;;10.70;99.90;;;11.69;100.00;98435.97;5046643;28;20944;-79
2023/09/15 04:13:25;;;;;;;2.80;1.40;;;10.60;99.90;;;11.69;100.00;98435.16;5047880;28;20476;-79
2023/09/15 04:15:59;;;;;;;6.67;1.90;;;10.60;99.90;;;11.72;100.00;98432.19;5046366;28;20925;-79
2023/09/15 04:18:29;;;;;;;3.07;1.60;;;10.70;99.90;;;11.66;100.00;98430.28;5045487;28;20495;-79
2023/09/15 04:20:58;;;;;;;6.97;2.70;;;10.70;99.90;;;11.69;100.00;98429.91;5043666;28;20551;-80
2023/09/15 04:23:28;;;;;;;10.73;1.83;;;10.70;99.90;;;11.69;100.00;98440.38;5044473;28;20464;-79
2023/09/15 04:25:58;;;;;;;2.40;1.40;;;10.60;99.90;;;11.66;100.00;98427.66;5041464;28;20860;-79
2023/09/15 04:28:28;;;;;;;3.13;1.67;;;10.60;99.90;;;11.61;100.00;98429.03;5043588;28;21481;-79
2023/09/15 04:30:59;;;;;;;2.33;1.57;;;10.60;99.90;;;11.60;100.00;98427.38;5042193;28;20472;-78
2023/09/15 04:33:29;;;;;;;3.93;1.37;;;10.60;99.90;;;11.66;100.00;98430.28;5048992;28;20489;-79
2023/09/15 04:35:59;;;;;;;7.63;1.80;;;10.60;99.90;;;11.65;100.00;98433.88;5045832;28;20469;-78
2023/09/15 04:38:30;;;;;;;2.30;1.57;;;10.60;99.90;;;11.59;100.00;98427.59;5044722;28;20947;-78
2023/09/15 04:41:00;;;;;;;6.50;2.00;;;10.60;99.90;;;11.57;100.00;98427.75;5051219;28;20488;-79
2023/09/15 04:43:31;;;;;;;4.23;1.87;;;10.60;99.90;;;11.57;100.00;98430.38;5047270;28;20470;-79
2023/09/15 04:46:02;;;;;;;2.67;1.47;;;10.60;99.90;;;11.61;100.00;98428.19;5049046;28;20493;-79
2023/09/15 04:48:31;;;;;;;6.20;1.70;;;10.60;99.90;;;11.52;100.00;98426.69;5046127;28;20465;-77
2023/09/15 04:51:02;;;;;;;4.67;1.97;;;10.60;99.90;;;11.49;100.00;98427.84;5047466;28;20473;-78
2023/09/15 04:53:33;;;;;;;2.20;1.63;;;10.60;99.90;;;11.49;100.00;98424.41;5050358;28;20489;-79
2023/09/15 04:56:05;;;;;;;3.97;1.70;;;10.40;99.90;;;11.44;100.00;98432.84;5046933;28;20457;-79
2023/09/15 04:58:34;;;;;;;5.43;1.70;;;10.50;99.90;;;11.39;100.00;98434.38;5046121;28;20464;-79
2023/09/15 05:01:11;;;;;;;4.70;1.60;;;10.50;99.90;;;11.43;100.00;98425.97;5049091;28;20503;-78
2023/09/15 05:03:58;;;;;;;5.10;2.10;;;10.40;99.90;;;11.41;100.00;98420.13;5045546;28;21091;-78
2023/09/15 05:06:27;;;;;;;3.40;1.73;;;10.40;99.90;;;11.43;100.00;98425.97;5043472;28;20474;-78
2023/09/15 05:08:57;;;;;;;4.33;1.77;;;10.30;99.90;;;11.44;100.00;98427.59;5042253;28;20510;-79
2023/09/15 05:11:28;;;;;;;4.37;2.27;;;10.40;99.90;;;11.42;100.00;98429.56;5041312;28;20484;-78
2023/09/15 05:13:58;;;;;;;5.07;1.60;;;10.40;99.90;;;11.44;100.00;98427.59;5043058;28;20462;-79
2023/09/15 05:16:29;;;;;;;4.93;1.63;;;10.30;99.90;;;11.43;100.00;98436.44;5045456;28;20500;-79
2023/09/15 05:18:58;;;;;;;7.13;1.60;;;10.30;99.90;;;11.44;100.00;98440.69;5043170;28;20911;-79
2023/09/15 05:21:28;;;;;;;2.90;1.77;;;10.40;99.90;;;11.47;100.00;98442.94;5047104;28;20457;-78
2023/09/15 05:23:58;;;;;;;5.20;1.87;;;10.40;99.90;;;11.43;100.00;98436.44;5044772;28;20503;-78
2023/09/15 05:26:27;;;;;;;4.93;1.50;;;10.30;99.90;;;11.44;100.00;98434.66;5046284;28;20468;-79
2023/09/15 05:28:58;;;;;;;2.10;1.40;;;10.30;99.90;;;11.35;100.00;98428.69;5043302;28;20811;-78
2023/09/15 05:31:32;;;;;;;7.67;2.20;;;10.40;99.90;;;11.30;100.00;98436.28;5046753;28;20469;-78
2023/09/15 05:34:03;;;;;;;4.60;1.40;;;10.50;99.90;;;11.35;100.00;98439.16;5047365;28;20451;-78
2023/09/15 05:36:33;;;;;;;1.77;1.47;;;10.40;99.90;;;11.29;100.00;98439.88;5045315;28;20490;-78
2023/09/15 05:39:02;;;;;;;1.50;1.33;;;10.40;99.90;;;11.35;100.00;98433.91;5051327;28;20452;-78
2023/09/15 05:41:32;;;;;;;1.60;1.43;;;10.40;99.90;;;11.37;100.00;98437.19;5045020;28;20501;-78
2023/09/15 05:44:02;;;;;;;1.77;1.47;;;10.40;99.90;;;11.41;100.00;98446.31;5045614;28;20472;-79
2023/09/15 05:46:33;;;;;;;3.83;1.60;;;10.40;99.90;;;11.45;100.00;98438.91;5045783;28;20456;-78
2023/09/15 05:49:03;;;;;;;5.70;1.97;;;10.50;99.90;;;11.43;100.00;98436.44;5047010;28;21237;-77
2023/09/15 05:51:32;;;;;;;2.50;1.57;;;10.40;99.90;;;11.45;100.00;98429.22;5038471;28;20472;-78
2023/09/15 05:54:02;;;;;;;2.10;1.60;;;10.40;99.90;;;11.47;100.00;98426.41;5041082;28;20587;-78
2023/09/15 05:56:32;;;;;;;4.90;2.00;;;10.40;99.90;;;11.49;100.00;98424.41;5044074;28;20541;-77
2023/09/15 05:59:04;;;;;;;3.20;1.80;;;10.40;99.90;;;11.49;100.00;98422.63;5044188;28;20484;-77
2023/09/15 06:01:35;;;;;;;2.70;1.70;;;10.40;99.90;;;11.46;100.00;98423.00;5048279;28;20492;-77
2023/09/15 06:04:07;;;;;;;3.30;1.70;;;10.40;99.90;;;11.49;100.00;98430.47;5047482;28;20963;-78
2023/09/15 06:06:37;;;;;;;2.50;1.70;;;10.50;99.90;;;11.49;100.00;98430.47;5036560;28;20465;-79
2023/09/15 06:09:07;;;;;;;2.80;1.80;;;10.40;99.90;;;11.52;100.00;98434.56;5042630;28;20843;-79
2023/09/15 06:11:37;;;;;;;3.20;1.40;;;10.40;99.90;;;11.55;100.00;98423.72;5041783;28;20552;-79
2023/09/15 06:14:07;;;;;;;3.10;1.90;;;10.50;99.90;;;11.58;100.00;98433.81;5043682;28;20457;-79
2023/09/15 06:16:40;;;;;;;1.93;1.53;;;10.50;99.90;;;11.59;100.00;98438.84;5037202;28;20476;-78
2023/09/15 06:19:10;;;;;;;2.90;1.87;;;10.60;99.90;;;11.57;100.00;98430.38;5040042;28;20457;-79
2023/09/15 06:21:40;;;;;;;2.43;1.80;;;10.60;99.90;;;11.62;100.00;98432.47;5043484;28;20966;-80
2023/09/15 06:24:11;;;;;;;2.13;1.80;;;10.60;99.90;;;11.61;100.00;98433.44;5041071;28;20465;-79
2023/09/15 06:26:41;;;;;;;2.07;1.50;;;10.60;99.90;;;11.66;100.00;98440.75;5039525;28;20466;-79
2023/09/15 06:29:12;;;;;;;2.60;1.87;;;10.70;99.90;;;11.66;100.00;98430.28;5040422;28;20464;-78
2023/09/15 06:31:43;;;;;;;3.00;1.73;;;10.80;99.90;;;11.71;100.00;98428.75;5043151;28;20494;-79
2023/09/15 06:34:14;;;;;;;6.83;2.60;;;10.70;99.90;;;11.71;100.00;98430.56;5044524;28;21019;-78
2023/09/15 06:36:45;;;;;;;3.60;1.73;;;10.80;99.90;;;11.77;100.00;98432.44;5044258;28;20976;-80
2023/09/15 06:39:14;;;;;;;2.40;1.73;;;10.80;99.90;;;11.79;100.00;98425.22;5045393;28;20519;-79
2023/09/15 06:41:44;;;;;;;2.87;1.90;;;10.80;99.90;;;11.77;100.00;98433.25;5044197;28;20496;-79
2023/09/15 06:44:15;;;;;;;3.40;1.80;;;10.90;99.90;;;11.76;100.00;98431.66;5041734;28;20486;-79
2023/09/15 06:46:46;;;;;;;3.00;1.67;;;10.90;99.90;;;11.85;100.00;98430.53;5041520;28;20536;-79
2023/09/15 06:49:21;;;;;;;2.90;1.73;;;10.90;99.90;;;11.92;100.00;98430.59;5042274;28;20522;-79
2023/09/15 06:51:52;;;;;;;5.37;2.50;;;10.90;99.90;;;11.90;100.00;98433.41;5044059;28;20472;-79
2023/09/15 06:54:22;;;;;;;3.13;1.53;;;11.00;99.90;;;11.93;100.00;98433.03;5040212;28;20494;-79
2023/09/15 06:56:53;;;;;;;8.37;2.47;;;11.10;99.90;;;12.00;100.00;98427.88;5039849;28;20860;-79
2023/09/15 06:59:23;;;;;;;4.07;2.17;;;11.10;99.90;;;12.04;100.00;98427.28;5043589;28;20461;-79
2023/09/15 07:01:54;;;;;;;3.13;1.90;;;11.10;99.90;;;12.09;100.00;98421.50;5038217;28;20919;-79
2023/09/15 07:04:24;;;;;;;10.23;1.83;;;11.10;99.90;;;12.10;100.00;98423.13;5042387;28;20461;-78
2023/09/15 07:06:54;;;;;;;2.30;1.83;;;11.10;99.90;;;12.16;100.00;98419.75;5038573;28;20465;-78
2023/09/15 07:09:24;;;;;;;31.57;16.70;;;11.20;99.90;;;12.18;100.00;98420.38;5039868;28;20472;-79
2023/09/15 07:11:54;;;;;;;8.50;3.90;;;11.20;99.90;;;12.22;100.00;98416.34;5041347;28;20972;-78
2023/09/15 07:14:24;;;;;;;6.60;2.53;;;11.30;99.90;;;12.26;100.00;98422.84;5045181;28;20468;-77
2023/09/15 07:16:56;;;;;;;2.67;1.83;;;11.40;99.90;;;12.33;100.00;98409.78;5042559;28;20992;-76
2023/09/15 07:19:27;;;;;;;3.80;1.87;;;11.40;99.90;;;12.37;100.00;98414.47;5044153;28;20825;-78
2023/09/15 07:21:56;;;;;;;1.90;1.70;;;11.40;99.90;;;12.43;100.00;98418.16;5040631;28;20603;-78
2023/09/15 07:24:26;;;;;;;2.43;1.90;;;11.50;99.90;;;12.45;100.00;98416.16;5040852;28;21158;-79
2023/09/15 07:26:56;;;;;;;2.80;1.77;;;11.50;99.90;;;12.50;100.00;98413.78;5042223;28;20458;-79
2023/09/15 07:29:28;;;;;;;2.10;1.60;;;11.60;99.90;;;12.51;100.00;98424.09;5044180;28;20455;-79
2023/09/15 07:31:59;;;;;;;4.60;1.93;;;11.70;99.90;;;12.56;100.00;98413.81;5041764;28;20454;-79
2023/09/15 07:34:30;;;;;;;5.63;1.97;;;11.70;99.90;;;12.63;100.00;98419.13;5045169;28;20457;-79
2023/09/15 07:37:00;;;;;;;6.97;1.87;;;11.70;99.90;;;12.68;100.00;98414.13;5045135;28;20488;-79
2023/09/15 07:39:30;;;;;;;7.60;1.80;;;11.80;99.90;;;12.75;100.00;98411.53;5045140;28;21088;-78
2023/09/15 07:42:01;;;;;;;2.97;1.97;;;11.80;99.90;;;12.81;100.00;98410.75;5041803;28;21053;-79
2023/09/15 07:44:32;;;;;;;6.23;1.70;;;11.90;99.90;;;12.86;100.00;98405.75;5044192;28;20465;-79
2023/09/15 07:47:06;;;;;;;6.47;1.90;;;12.00;99.90;;;12.92;100.00;98399.72;5045412;28;20507;-79
2023/09/15 07:49:36;;;;;;;3.87;1.97;;;12.00;99.90;;;12.99;100.00;98397.97;5044118;28;20986;-79
2023/09/15 07:52:07;;;;;;;8.03;2.23;;;12.10;99.90;;;13.04;100.00;98390.31;5042496;28;20980;-79
2023/09/15 07:54:37;;;;;;;8.90;1.83;;;12.10;99.90;;;13.11;100.00;98396.47;5045946;28;20469;-78
2023/09/15 07:57:08;;;;;;;3.20;1.53;;;12.20;99.90;;;13.17;100.00;98393.03;5047307;28;20465;-78
2023/09/15 07:59:38;;;;;;;5.30;2.23;;;12.30;99.90;;;13.24;100.00;98388.63;5042342;28;20850;-80
2023/09/15 08:02:09;;;;;;;11.03;2.33;;;12.30;99.90;;;13.29;100.00;98383.63;5037126;28;20589;-79
2023/09/15 08:04:38;;;;;;;29.80;13.63;;;12.40;99.90;;;13.37;100.00;98385.25;5035890;28;20468;-80
2023/09/15 08:07:07;;;;;;;17.33;2.97;;;12.50;99.90;;;13.43;100.00;98387.88;5041000;28;20468;-79
2023/09/15 08:09:37;;;;;;;8.80;2.17;;;12.50;99.90;;;13.49;100.00;98379.25;5042747;28;20578;-79
2023/09/15 08:12:10;;;;;;;3.57;1.90;;;12.60;99.90;;;13.57;100.00;98381.69;5044308;28;20460;-79
2023/09/15 08:14:41;;;;;;;3.50;1.93;;;12.70;99.90;;;13.63;100.00;98377.47;5042967;28;20469;-79
2023/09/15 08:17:13;;;;;;;3.47;2.00;;;12.80;99.90;;;13.70;100.00;98380.09;5043095;28;20464;-79
2023/09/15 08:20:02;;;;;;;5.27;1.97;;;12.90;99.90;;;13.77;100.00;98383.56;5039146;28;20465;-79
2023/09/15 08:22:33;;;;;;;4.03;2.17;;;12.90;99.90;;;13.81;100.00;98384.78;5039118;28;20487;-79
2023/09/15 08:25:03;;;;;;;6.20;3.00;;;13.00;99.90;;;13.86;100.00;98375.28;5042079;28;20960;-80
2023/09/15 08:27:33;;;;;;;5.00;2.20;;;13.10;99.90;;;13.93;100.00;98380.56;5044171;28;20500;-79
2023/09/15 08:30:03;;;;;;;3.47;2.00;;;13.20;99.90;;;13.99;100.00;98379.75;5041382;28;20570;-79
2023/09/15 08:32:35;;;;;;;4.77;2.03;;;13.20;99.90;;;14.05;100.00;98381.59;5041606;28;20468;-79
2023/09/15 08:35:08;;;;;;;9.20;1.63;;;13.30;99.90;;;14.12;100.00;98385.03;5039692;28;20473;-79
2023/09/15 08:37:37;;;;;;;5.87;2.40;;;13.30;99.90;;;14.18;100.00;98384.22;5042600;28;20460;-80
2023/09/15 08:40:10;;;;;;;2.33;1.63;;;13.40;99.90;;;14.24;100.00;98382.59;5037970;28;20485;-80
2023/09/15 08:42:41;;;;;;;7.43;1.90;;;13.50;99.90;;;14.29;100.00;98380.19;5040279;28;20571;-79
2023/09/15 08:45:12;;;;;;;6.00;1.97;;;13.50;99.90;;;14.34;100.00;98378.59;5039843;28;20461;-79
2023/09/15 08:47:48;;;;;;;6.23;2.47;;;13.60;99.90;;;14.40;100.00;98372.53;5040079;28;20971;-79
2023/09/15 08:50:18;;;;;;;6.40;2.10;;;13.60;99.90;;;14.45;100.00;98375.34;5039611;28;20465;-79
2023/09/15 08:52:50;;;;;;;4.07;1.77;;;13.70;99.90;;;14.50;100.00;98374.75;5042096;28;20496;-80
2023/09/15 08:55:20;;;;;;;3.30;1.50;;;13.80;99.90;;;14.55;100.00;98370.50;5045290;28;20466;-79
2023/09/15 08:57:49;;;;;;;8.90;4.63;;;13.80;99.90;;;14.63;100.00;98372.09;5045872;28;20564;-79
2023/09/15 09:00:18;;;;;;;16.00;5.30;;;13.90;99.90;;;14.68;100.00;98376.78;5049709;28;20465;-79
2023/09/15 09:02:53;;;;;;;4.40;2.27;;;14.00;99.90;;;14.77;100.00;98370.25;5044459;28;20997;-79
2023/09/15 09:05:30;;;;;;;5.00;2.40;;;14.10;99.90;;;14.83;100.00;98369.44;5044522;28;20464;-79
2023/09/15 09:08:03;;;;;;;7.30;2.50;;;14.10;99.90;;;14.89;100.00;98371.25;5049782;28;20972;-79
2023/09/15 09:10:35;;;;;;;5.50;1.90;;;14.20;99.90;;;14.95;100.00;98371.25;5043416;28;20466;-79
2023/09/15 09:13:06;;;;;;;10.23;2.77;;;14.30;99.90;;;15.02;100.00;98368.59;5042014;28;20481;-79
2023/09/15 09:15:36;;;;;;;6.70;1.97;;;14.40;99.90;;;15.07;100.00;98368.75;5041843;28;20524;-79
2023/09/15 09:18:16;;;;;;;3.17;2.07;;;14.40;99.90;;;15.15;100.00;98362.47;5047430;28;20469;-79
2023/09/15 09:20:49;;;;;;;7.73;2.07;;;14.50;99.90;;;15.18;100.00;98360.22;5041633;28;20458;-79
2023/09/15 09:23:20;;;;;;;5.97;2.00;;;14.50;99.90;;;15.24;100.00;98356.75;5042957;28;20484;-79
2023/09/15 09:25:49;;;;;;;8.13;3.20;;;14.60;99.90;;;15.34;100.00;98357.09;5046487;28;20951;-78
2023/09/15 09:28:21;;;;;;;4.40;2.00;;;14.70;99.90;;;15.42;100.00;98356.06;5046242;28;20950;-78
2023/09/15 09:30:55;;;;;;;2.77;2.00;;;14.80;99.90;;;15.52;100.00;98357.25;5040547;28;20679;-78
2023/09/15 09:33:27;;;;;;;5.20;2.10;;;14.90;99.90;;;15.60;100.00;98346.47;5040031;28;20464;-79
2023/09/15 09:35:57;;;;;;;2.10;1.60;;;15.00;99.90;;;15.69;100.00;98346.25;5046988;28;20470;-79
2023/09/15 09:38:28;;;;;;;6.20;1.73;;;15.10;99.90;;;15.77;100.00;98343.31;5046962;28;20464;-79
2023/09/15 09:40:59;;;;;;;8.90;4.30;;;15.20;99.90;;;15.83;100.00;98343.28;5042062;28;20503;-79
2023/09/15 09:43:28;;;;;;;10.40;5.80;;;15.20;99.90;;;15.89;100.00;98341.63;5044791;28;20532;-79
2023/09/15 09:45:59;;;;;;;8.77;2.97;;;15.30;99.90;;;15.95;100.00;98341.59;5044770;28;20950;-79
2023/09/15 09:48:32;;;;;;;3.67;1.73;;;15.30;99.90;;;15.99;100.00;98342.78;5045482;28;21034;-79
2023/09/15 09:51:03;;;;;;;15.23;2.30;;;15.40;99.90;;;16.04;100.00;98336.84;5036857;28;20467;-79
2023/09/15 09:53:36;;;;;;;5.90;1.70;;;15.40;99.90;;;16.07;100.00;98339.88;5036282;28;20515;-78
2023/09/15 09:56:07;;;;;;;5.80;1.63;;;15.50;99.90;;;16.10;100.00;98338.66;5043159;28;20546;-80
2023/09/15 09:58:39;;;;;;;2.43;1.87;;;15.50;99.90;;;16.15;100.00;98333.53;5042912;28;20468;-79
2023/09/15 10:01:11;;;;;;;4.73;1.83;;;15.60;99.90;;;16.22;100.00;98326.34;5041470;28;20471;-79
2023/09/15 10:03:43;;;;;;;3.80;1.80;;;15.60;99.90;;;16.30;100.00;98325.28;5040951;28;20493;-79
2023/09/15 10:06:13;;;;;;;2.73;1.60;;;15.60;99.90;;;16.36;100.00;98325.22;5042453;28;20467;-79
2023/09/15 10:08:45;;;;;;;3.87;2.20;;;15.70;99.90;;;16.43;100.00;98328.63;5048028;28;20465;-79
2023/09/15 10:11:16;;;;;;;5.63;2.17;;;15.80;99.90;;;16.51;100.00;98320.41;5043607;28;21139;-79
2023/09/15 10:13:48;;;;;;;2.80;1.70;;;15.90;99.90;;;16.60;100.00;98320.97;5049280;28;20457;-79
2023/09/15 10:16:19;;;;;;;7.13;1.90;;;16.00;99.90;;;16.66;100.00;98321.94;5039759;28;20536;-79
2023/09/15 10:18:51;;;;;;;3.77;2.23;;;16.10;99.90;;;16.74;100.00;98313.72;5047491;28;20874;-79
2023/09/15 10:21:22;;;;;;;22.40;12.50;;;16.10;99.90;;;16.81;100.00;98309.97;5044938;28;20468;-80
2023/09/15 10:24:01;;;;;;;12.60;3.70;;;16.20;99.90;;;16.88;100.00;98304.63;5046494;28;20489;-79
2023/09/15 10:26:31;;;;;;;2.93;2.00;;;16.30;99.90;;;16.94;100.00;98299.25;5047093;28;20470;-77
2023/09/15 10:29:03;;;;;;;3.03;1.93;;;16.30;99.90;;;17.05;100.00;98297.69;5042340;28;20453;-77
2023/09/15 10:31:34;;;;;;;7.90;2.30;;;16.40;99.90;;;17.14;100.00;98293.75;5044464;28;20472;-76